Ginys del Meteocat
Campanya meteocatpedra

Dades de l'estació automàtica la Vall d'en Bas

?
?
Resum diari 22:30 TU
Dades diàries de l'estació meteorològica
Temperatura mitjana 11.1 °C
Temperatura màxima 14.7 °C 12:12 TU
Temperatura mínima 6.7 °C 4:50 TU
Humitat relativa mitjana 95%
Precipitació acumulada 0.0 mm
Ratxa màxima del vent (2 m) 15.1 km/h - 153º 12:27 TU
Irradiació solar global 3.0 MJ/m2

El tram horari està expressat en Temps Universal (TU). Cal sumar una hora en horari d'hivern i dues en horari d'estiu per passar a l'hora oficial.

la Vall d'en Bas

Metadades estació meteorol´gica
Municipi La Vall d'en Bas
Comarca Garrotxa
Altitud 461 m
Data alta 16.03.2000
Estat actual Operativa
Dades de període
Període
TU
TM
°C
TX
°C
TN
°C
HRM
%
PPT
mm
VVM (2 m)
km/h
DVM (2 m)
graus
VVX (2 m)
km/h
RS
W/m2
00:00 - 00:30 10.9 11.4 10.4 100 0.0 1.4 261 4.0 0
00:30 - 01:00 10.1 10.5 9.8 100 0.0 1.1 246 4.7 0
01:00 - 01:30 9.5 10.0 9.0 100 0.0 1.1 90 4.0 0
01:30 - 02:00 9.1 9.6 8.6 100 0.0 1.1 325 4.7 0
02:00 - 02:30 8.3 8.9 7.4 100 0.0 0.7 227 3.2 0
02:30 - 03:00 7.6 8.1 7.4 100 0.0 1.1 213 3.6 0
03:00 - 03:30 7.9 8.3 7.6 100 0.0 0.7 174 2.9 0
03:30 - 04:00 8.1 8.4 7.9 100 0.0 1.4 291 3.6 0
04:00 - 04:30 7.9 8.2 7.6 100 0.0 0.4 234 2.2 0
04:30 - 05:00 7.3 7.8 6.7 100 0.0 0.7 222 3.6 0
05:00 - 05:30 7.0 7.5 6.8 100 0.0 1.4 233 3.6 0
05:30 - 06:00 7.4 7.5 7.2 100 0.0 0.4 215 2.5 0
06:00 - 06:30 7.5 7.8 7.4 100 0.0 0.4 198 2.9 3
06:30 - 07:00 8.1 8.3 7.8 100 0.0 0.7 264 4.0 14
07:00 - 07:30 8.5 8.6 8.3 100 0.0 1.4 325 4.7 23
07:30 - 08:00 9.0 9.5 8.6 100 0.0 1.4 241 5.8 48
08:00 - 08:30 9.9 10.5 9.5 100 0.0 1.8 356 4.3 141
08:30 - 09:00 10.9 11.3 10.6 100 0.0 2.2 241 6.1 118
09:00 - 09:30 11.7 12.1 11.3 96 0.0 3.6 293 5.8 116
09:30 - 10:00 12.5 12.9 12.1 90 0.0 1.1 26 4.3 165
10:00 - 10:30 13.3 13.6 12.9 81 0.0 0.7 36 3.2 145
10:30 - 11:00 13.6 13.8 13.3 81 0.0 1.8 261 6.5 105
11:00 - 11:30 13.8 13.9 13.7 84 0.0 2.9 263 7.2 63
11:30 - 12:00 14.2 14.4 13.9 80 0.0 1.8 5 6.1 135
12:00 - 12:30 14.5 14.7 14.4 77 0.0 2.9 132 15.1 121
12:30 - 13:00 14.3 14.4 14.2 79 0.0 3.6 231 10.4 132
13:00 - 13:30 14.2 14.4 14.1 81 0.0 4.0 6 9.0 162
13:30 - 14:00 14.2 14.4 14.0 81 0.0 2.5 4 6.5 74
14:00 - 14:30 13.7 14.0 13.6 84 0.0 4.3 25 7.9 45
14:30 - 15:00 13.6 13.7 13.6 87 0.0 3.2 22 6.5 38
15:00 - 15:30 13.6 13.7 13.5 90 0.0 2.5 22 5.0 30
15:30 - 16:00 13.4 13.5 13.3 92 0.0 3.2 24 7.6 33
16:00 - 16:30 13.2 13.3 13.1 95 0.0 2.2 330 5.4 6
16:30 - 17:00 12.8 13.1 12.6 100 0.0 4.3 22 6.5 3
17:00 - 17:30 12.4 12.6 12.3 100 0.0 2.9 16 5.0 0
17:30 - 18:00 12.3 12.4 12.2 100 0.0 2.2 21 5.4 0
18:00 - 18:30 12.3 12.3 12.2 100 0.0 2.2 13 4.3 0
18:30 - 19:00 12.1 12.2 12.0 100 0.0 2.2 336 4.3 0
19:00 - 19:30 11.9 12.0 11.8 100 0.0 1.4 40 4.7 0
19:30 - 20:00 11.8 11.9 11.8 100 0.0 2.2 33 4.7 0
20:00 - 20:30 11.9 11.9 11.8 100 0.0 1.1 348 3.2 0
20:30 - 21:00 11.6 11.8 11.4 100 0.0 0.7 12 2.9 0
21:00 - 21:30 11.3 11.4 11.2 100 0.0 1.4 356 3.6 0
21:30 - 22:00 11.2 11.4 11.1 100 0.0 0.4 42 3.6 0
22:00 - 22:30 11.3 11.4 11.0 100 0.0 0.4 346 3.6 0
22:30 - 23:00 (s/d) (s/d) (s/d) (s/d) (s/d) (s/d) (s/d) (s/d) (s/d)

Les dades en taronja només han passat un control de qualitat automàtic. Resta pendent la seva validació definitiva.